Time;durP1;ratioP1;P1;durP2;ratioP2;P2;SDS_P1;SDS_P2;PMS_P1;PMS_P2;Temp;Humidity;BMP_temperature;BMP_pressure;BME280_temperature;BME280_humidity;BME280_pressure;Samples;Min_cycle;Max_cycle;Signal;HPM_P1;HPM_P2
2023/12/18 00:02:16;;;;;;;41.63;28.52;;;19.30;76.50;;;;;;4952273;28;20543;-67
2023/12/18 00:04:41;;;;;;;39.83;27.98;;;19.30;76.60;;;;;;4952278;28;20106;-67
2023/12/18 00:07:07;;;;;;;40.28;27.90;;;19.30;76.50;;;;;;4953767;28;20110;-68
2023/12/18 00:09:32;;;;;;;34.20;25.63;;;19.30;76.60;;;;;;4952598;28;20038;-68
2023/12/18 00:11:58;;;;;;;37.15;26.23;;;19.30;76.50;;;;;;4952405;28;20102;-68
2023/12/18 00:14:24;;;;;;;35.70;26.30;;;19.30;76.30;;;;;;4950668;28;20035;-68
2023/12/18 00:16:50;;;;;;;36.30;25.85;;;19.30;76.30;;;;;;4953200;28;20467;-68
2023/12/18 00:19:15;;;;;;;35.70;26.05;;;19.30;76.70;;;;;;4953245;28;20140;-69
2023/12/18 00:21:41;;;;;;;36.70;25.20;;;19.30;76.40;;;;;;4952546;28;20031;-68
2023/12/18 00:24:07;;;;;;;36.92;25.88;;;19.30;76.60;;;;;;4951996;28;20030;-68
2023/12/18 00:26:32;;;;;;;35.58;24.50;;;19.30;76.50;;;;;;4951989;28;20073;-71
2023/12/18 00:28:58;;;;;;;37.65;25.15;;;19.30;76.70;;;;;;4953163;28;20394;-69
2023/12/18 00:31:23;;;;;;;36.92;23.75;;;19.30;77.10;;;;;;4952280;28;20080;-69
2023/12/18 00:33:49;;;;;;;35.33;23.92;;;19.40;77.00;;;;;;4951963;28;20020;-69
2023/12/18 00:36:14;;;;;;;34.30;22.63;;;19.30;77.10;;;;;;4952018;28;20501;-69
2023/12/18 00:38:40;;;;;;;31.30;21.63;;;19.30;77.30;;;;;;4951977;28;20028;-67
2023/12/18 00:41:06;;;;;;;29.73;21.58;;;19.40;77.30;;;;;;4953241;28;20134;-67
2023/12/18 00:43:31;;;;;;;31.25;20.10;;;19.40;77.20;;;;;;4951675;28;20538;-67
2023/12/18 00:45:57;;;;;;;34.67;21.15;;;19.40;77.20;;;;;;4951652;28;20085;-67
2023/12/18 00:48:22;;;;;;;28.17;19.73;;;19.40;77.30;;;;;;4951669;28;20475;-66
2023/12/18 00:50:48;;;;;;;28.90;19.95;;;19.40;77.60;;;;;;4952771;28;20506;-66
2023/12/18 00:53:16;;;;;;;29.02;19.65;;;19.40;77.30;;;;;;4952410;28;20101;-70
2023/12/18 00:55:44;;;;;;;27.30;19.20;;;19.40;77.50;;;;;;4951848;28;20085;-70
2023/12/18 00:58:10;;;;;;;26.80;18.20;;;19.40;77.50;;;;;;4951789;28;20031;-71
2023/12/18 01:00:36;;;;;;;29.17;19.10;;;19.40;77.80;;;;;;4952099;28;20054;-70
2023/12/18 01:03:01;;;;;;;26.52;18.27;;;19.40;77.80;;;;;;4953040;28;20525;-66
2023/12/18 01:05:27;;;;;;;25.73;18.38;;;19.40;77.80;;;;;;4951379;28;20030;-65
2023/12/18 01:07:53;;;;;;;27.40;18.20;;;19.40;78.20;;;;;;4934450;28;20032;-64
2023/12/18 01:10:18;;;;;;;24.60;16.58;;;19.40;78.00;;;;;;4951852;28;20031;-67
2023/12/18 01:12:44;;;;;;;21.52;15.15;;;19.40;77.80;;;;;;4951679;28;20018;-66
2023/12/18 01:15:10;;;;;;;27.17;16.80;;;19.50;77.90;;;;;;4952422;28;20042;-65
2023/12/18 01:17:35;;;;;;;21.95;15.70;;;19.50;77.80;;;;;;4951879;28;20020;-67
2023/12/18 01:20:02;;;;;;;24.17;15.77;;;19.50;77.60;;;;;;4951614;28;20405;-66
2023/12/18 01:22:27;;;;;;;22.35;15.05;;;19.50;77.80;;;;;;4951822;28;20443;-67
2023/12/18 01:24:53;;;;;;;22.13;15.35;;;19.50;77.60;;;;;;4953244;28;20101;-67
2023/12/18 01:27:18;;;;;;;21.15;15.25;;;19.50;77.60;;;;;;4954850;28;20020;-67
2023/12/18 01:29:44;;;;;;;20.20;14.60;;;19.50;77.50;;;;;;4955170;28;20039;-66
2023/12/18 01:32:10;;;;;;;19.20;13.48;;;19.50;77.40;;;;;;4954822;28;20058;-66
2023/12/18 01:34:35;;;;;;;22.67;14.25;;;19.50;77.30;;;;;;4955027;28;20027;-66
2023/12/18 01:37:01;;;;;;;19.95;13.85;;;19.40;77.30;;;;;;4956293;28;20023;-69
2023/12/18 01:39:27;;;;;;;19.17;14.40;;;19.50;77.30;;;;;;4954975;28;20110;-69
2023/12/18 01:41:53;;;;;;;29.77;13.68;;;19.50;77.40;;;;;;4954811;28;20027;-68
2023/12/18 01:44:19;;;;;;;28.55;14.18;;;19.50;77.70;;;;;;4954615;28;20455;-69
2023/12/18 01:46:45;;;;;;;24.55;13.55;;;19.50;77.50;;;;;;4955124;28;20035;-69
2023/12/18 01:49:12;;;;;;;33.55;13.27;;;19.50;77.20;;;;;;4955848;28;20106;-69
2023/12/18 01:51:37;;;;;;;21.55;14.15;;;19.50;77.50;;;;;;4955132;28;20015;-69
2023/12/18 01:54:04;;;;;;;18.42;13.05;;;19.50;77.10;;;;;;4954868;28;20023;-69
2023/12/18 01:56:31;;;;;;;17.60;12.23;;;19.50;77.40;;;;;;4954614;28;20104;-68
2023/12/18 01:58:59;;;;;;;17.55;12.25;;;19.50;77.20;;;;;;4956064;28;20109;-69
2023/12/18 02:01:28;;;;;;;25.60;12.15;;;19.50;77.20;;;;;;4954557;28;20085;-68
2023/12/18 02:03:55;;;;;;;19.75;12.77;;;19.50;77.40;;;;;;4954391;28;20110;-69
2023/12/18 02:06:21;;;;;;;18.67;12.00;;;19.50;77.40;;;;;;4954434;28;20027;-68
2023/12/18 02:08:47;;;;;;;18.38;10.73;;;19.40;77.50;;;;;;4955043;28;20019;-68
2023/12/18 02:11:13;;;;;;;15.90;10.70;;;19.40;77.70;;;;;;4955208;28;20023;-68
2023/12/18 02:13:41;;;;;;;15.85;10.88;;;19.40;77.80;;;;;;4954409;28;20038;-67
2023/12/18 02:16:07;;;;;;;14.18;10.93;;;19.40;77.90;;;;;;4954437;28;20039;-68
2023/12/18 02:18:33;;;;;;;22.77;10.27;;;19.40;78.00;;;;;;4957039;28;20038;-68
2023/12/18 02:20:59;;;;;;;18.40;11.10;;;19.40;78.00;;;;;;4955711;28;20042;-68
2023/12/18 02:23:24;;;;;;;15.80;11.23;;;19.40;78.10;;;;;;4954177;28;20101;-69
2023/12/18 02:25:50;;;;;;;14.45;10.10;;;19.40;78.30;;;;;;4953615;28;20487;-68
2023/12/18 02:28:17;;;;;;;13.75;9.73;;;19.40;78.10;;;;;;4953858;28;20106;-69
2023/12/18 02:30:43;;;;;;;14.30;9.57;;;19.40;78.10;;;;;;4954103;28;20020;-70
2023/12/18 02:33:09;;;;;;;19.10;10.00;;;19.40;78.40;;;;;;4955065;28;20105;-71
2023/12/18 02:35:35;;;;;;;13.40;9.38;;;19.40;78.20;;;;;;4953721;28;20115;-71
2023/12/18 02:38:01;;;;;;;32.55;9.40;;;19.40;78.10;;;;;;4952661;28;20037;-69
2023/12/18 02:40:28;;;;;;;13.52;9.50;;;19.40;78.00;;;;;;4936780;28;20037;-70
2023/12/18 02:42:54;;;;;;;13.93;8.68;;;19.40;78.10;;;;;;4955014;28;20051;-70
2023/12/18 02:45:19;;;;;;;14.27;9.30;;;19.50;78.10;;;;;;4953460;28;20059;-69
2023/12/18 02:47:45;;;;;;;12.52;8.82;;;19.40;78.10;;;;;;4953626;28;20463;-68
2023/12/18 02:50:11;;;;;;;15.13;9.15;;;19.50;77.90;;;;;;4953682;28;20037;-68
2023/12/18 02:52:36;;;;;;;15.52;8.70;;;19.50;77.90;;;;;;4953607;28;20394;-68
2023/12/18 02:55:02;;;;;;;13.93;7.95;;;19.50;77.90;;;;;;4954567;28;20044;-67
2023/12/18 02:57:28;;;;;;;12.73;8.65;;;19.50;77.80;;;;;;4953314;28;20015;-67
2023/12/18 02:59:53;;;;;;;12.13;7.70;;;19.50;77.70;;;;;;4953635;28;20068;-68
2023/12/18 03:02:19;;;;;;;11.63;7.60;;;19.50;77.60;;;;;;4947281;28;20023;-67
2023/12/18 03:04:45;;;;;;;10.35;7.70;;;19.50;77.60;;;;;;4953600;28;20030;-68
2023/12/18 03:07:11;;;;;;;11.70;8.23;;;19.50;77.80;;;;;;4954237;28;20206;-68
2023/12/18 03:09:37;;;;;;;16.25;7.97;;;19.50;77.70;;;;;;4953164;28;20023;-68
2023/12/18 03:12:03;;;;;;;13.80;8.05;;;19.50;77.40;;;;;;4953278;28;20395;-67
2023/12/18 03:14:29;;;;;;;12.75;8.23;;;19.50;77.40;;;;;;4953113;28;20035;-67
2023/12/18 03:16:55;;;;;;;11.98;8.13;;;19.50;77.30;;;;;;4954460;28;20073;-67
2023/12/18 03:19:20;;;;;;;13.18;8.57;;;19.50;77.20;;;;;;4953215;28;20116;-67
2023/12/18 03:21:46;;;;;;;11.70;7.28;;;19.40;77.30;;;;;;4953032;28;20518;-68
2023/12/18 03:24:12;;;;;;;9.73;6.40;;;19.40;77.30;;;;;;4952945;28;20058;-68
2023/12/18 03:26:37;;;;;;;11.93;6.95;;;19.50;77.60;;;;;;4953128;28;20023;-68
2023/12/18 03:29:03;;;;;;;9.98;6.88;;;19.50;77.50;;;;;;4954512;28;20019;-68
2023/12/18 03:31:29;;;;;;;10.88;6.45;;;19.50;77.50;;;;;;4953202;28;20023;-68
2023/12/18 03:33:54;;;;;;;10.02;7.10;;;19.50;77.50;;;;;;4952875;28;20031;-67
2023/12/18 03:36:20;;;;;;;9.50;5.78;;;19.50;77.50;;;;;;4952953;28;20035;-69
2023/12/18 03:38:46;;;;;;;9.82;6.60;;;19.40;77.60;;;;;;4953198;28;20019;-69
2023/12/18 03:41:12;;;;;;;9.73;6.10;;;19.50;77.60;;;;;;4953844;28;20075;-69
2023/12/18 03:43:37;;;;;;;9.20;5.82;;;19.40;77.60;;;;;;4952775;28;20479;-68
2023/12/18 03:46:04;;;;;;;8.70;6.35;;;19.40;77.70;;;;;;4952782;28;20028;-69
2023/12/18 03:48:29;;;;;;;8.52;6.10;;;19.40;77.40;;;;;;4952696;28;20613;-70
2023/12/18 03:50:55;;;;;;;12.73;5.55;;;19.40;77.30;;;;;;4954341;28;20114;-68
2023/12/18 03:53:21;;;;;;;9.52;5.70;;;19.40;77.70;;;;;;4952653;28;20414;-69
2023/12/18 03:55:46;;;;;;;20.20;5.55;;;19.50;77.60;;;;;;4952522;28;20043;-69
2023/12/18 03:58:12;;;;;;;11.90;5.70;;;19.40;77.70;;;;;;4952706;28;20407;-69
2023/12/18 04:00:37;;;;;;;19.80;6.07;;;19.50;77.70;;;;;;4952775;28;20023;-71
2023/12/18 04:03:04;;;;;;;32.88;6.45;;;19.50;77.60;;;;;;4954372;28;20026;-69
2023/12/18 04:05:30;;;;;;;14.45;5.13;;;19.50;77.70;;;;;;4952328;28;20034;-69
2023/12/18 04:07:55;;;;;;;10.73;5.00;;;19.50;77.80;;;;;;4952195;28;20023;-69
2023/12/18 04:10:21;;;;;;;21.65;5.82;;;19.50;77.50;;;;;;4951185;29;20406;-69
2023/12/18 04:12:46;;;;;;;11.27;5.85;;;19.50;77.60;;;;;;4953115;28;20458;-69
2023/12/18 04:15:12;;;;;;;8.32;4.85;;;19.50;77.60;;;;;;4952954;28;20554;-69
2023/12/18 04:17:38;;;;;;;7.72;4.82;;;19.40;77.40;;;;;;4952477;28;20019;-70
2023/12/18 04:20:05;;;;;;;8.05;5.00;;;19.40;77.30;;;;;;4952168;28;20059;-70
2023/12/18 04:22:30;;;;;;;11.25;5.38;;;19.50;77.40;;;;;;4952283;28;20015;-69
2023/12/18 04:24:56;;;;;;;6.25;4.55;;;19.40;77.40;;;;;;4953543;28;20023;-70
2023/12/18 04:27:22;;;;;;;6.20;4.45;;;19.50;77.50;;;;;;4952360;28;20019;-70
2023/12/18 04:29:48;;;;;;;7.03;4.18;;;19.50;77.90;;;;;;4952452;28;20027;-70
2023/12/18 04:32:13;;;;;;;8.15;4.43;;;19.50;77.90;;;;;;4952278;28;20032;-70
2023/12/18 04:34:39;;;;;;;8.65;4.70;;;19.50;77.90;;;;;;4952192;28;20019;-68
2023/12/18 04:37:05;;;;;;;8.55;4.72;;;19.50;78.10;;;;;;4953391;28;20375;-68
2023/12/18 04:39:32;;;;;;;4.43;3.63;;;19.50;78.00;;;;;;4952442;28;20051;-69
2023/12/18 04:41:57;;;;;;;11.48;4.45;;;19.50;77.90;;;;;;4952044;28;20039;-69
2023/12/18 04:44:23;;;;;;;7.43;4.72;;;19.40;77.90;;;;;;4952153;28;20050;-69
2023/12/18 04:46:49;;;;;;;6.75;3.97;;;19.50;77.80;;;;;;4952886;28;20394;-68
2023/12/18 04:49:14;;;;;;;6.93;4.70;;;19.50;77.80;;;;;;4952692;28;20038;-69
2023/12/18 04:51:40;;;;;;;6.25;4.25;;;19.50;77.70;;;;;;4951961;28;20024;-69
2023/12/18 04:54:05;;;;;;;7.80;3.85;;;19.50;77.70;;;;;;4951904;28;20031;-70
2023/12/18 04:56:31;;;;;;;7.13;4.35;;;19.50;77.90;;;;;;4952008;28;20027;-69
2023/12/18 04:58:57;;;;;;;6.85;4.00;;;19.50;77.80;;;;;;4953375;28;20034;-69
2023/12/18 05:01:22;;;;;;;6.50;4.18;;;19.50;77.80;;;;;;4954584;28;20054;-70
2023/12/18 05:03:48;;;;;;;6.43;3.70;;;19.50;77.70;;;;;;4955457;28;20027;-70
2023/12/18 05:06:20;;;;;;;5.72;3.63;;;19.50;77.80;;;;;;4955008;28;20494;-71
2023/12/18 05:08:47;;;;;;;4.93;3.20;;;19.40;77.80;;;;;;4938687;28;20558;-67
2023/12/18 05:11:13;;;;;;;6.40;3.70;;;19.40;77.70;;;;;;4956160;28;20446;-66
2023/12/18 05:13:39;;;;;;;5.68;3.42;;;19.40;77.60;;;;;;4955119;28;20070;-71
2023/12/18 05:16:05;;;;;;;4.40;3.30;;;19.50;77.70;;;;;;4955004;28;20031;-71
2023/12/18 05:18:31;;;;;;;5.05;3.35;;;19.50;77.60;;;;;;4955181;28;20479;-70
2023/12/18 05:20:57;;;;;;;5.43;3.60;;;19.40;77.50;;;;;;4956549;28;20031;-70
2023/12/18 05:23:23;;;;;;;8.57;3.67;;;19.40;77.60;;;;;;4955239;28;20106;-70
2023/12/18 05:25:50;;;;;;;8.75;4.18;;;19.40;77.50;;;;;;4954954;28;20023;-67
2023/12/18 05:28:15;;;;;;;8.02;3.75;;;19.40;77.70;;;;;;4955037;28;20026;-67
2023/12/18 05:30:41;;;;;;;9.23;3.00;;;19.40;77.90;;;;;;4937766;29;20027;-67
2023/12/18 05:33:07;;;;;;;11.07;3.35;;;19.40;77.90;;;;;;4956284;28;20026;-67
2023/12/18 05:35:32;;;;;;;6.22;2.50;;;19.40;78.00;;;;;;4955001;28;20019;-68
2023/12/18 05:37:58;;;;;;;3.90;2.65;;;19.50;77.90;;;;;;4954866;28;20039;-68
2023/12/18 05:40:23;;;;;;;5.72;3.22;;;19.40;77.80;;;;;;4955060;28;20027;-67
2023/12/18 05:42:49;;;;;;;5.13;2.65;;;19.40;77.90;;;;;;4955960;28;20027;-67
2023/12/18 05:45:15;;;;;;;4.15;3.03;;;19.40;77.90;;;;;;4954977;28;20116;-67
2023/12/18 05:47:41;;;;;;;6.28;3.00;;;19.40;78.00;;;;;;4954748;28;20111;-67
2023/12/18 05:50:07;;;;;;;5.75;2.80;;;19.40;78.10;;;;;;4954589;28;20019;-66
2023/12/18 05:52:32;;;;;;;5.93;3.25;;;19.40;78.10;;;;;;4954820;28;20023;-67
2023/12/18 05:54:58;;;;;;;5.28;3.30;;;19.40;78.10;;;;;;4956205;28;20450;-66
2023/12/18 05:57:24;;;;;;;5.15;3.15;;;19.40;78.10;;;;;;4954657;28;20102;-67
2023/12/18 05:59:49;;;;;;;4.00;2.67;;;19.40;78.10;;;;;;4954860;28;20023;-67
2023/12/18 06:02:15;;;;;;;5.03;3.00;;;19.40;78.20;;;;;;4954765;28;20058;-66
2023/12/18 06:04:43;;;;;;;4.85;3.33;;;19.50;78.20;;;;;;4954513;28;20069;-71
2023/12/18 06:07:09;;;;;;;5.15;2.90;;;19.40;78.10;;;;;;4953814;28;20015;-71
2023/12/18 06:09:35;;;;;;;3.70;2.70;;;19.50;78.10;;;;;;4955376;28;20026;-70
2023/12/18 06:12:00;;;;;;;4.05;3.05;;;19.40;78.10;;;;;;4955414;28;20228;-70
2023/12/18 06:14:26;;;;;;;3.50;2.75;;;19.40;78.00;;;;;;4956121;28;20081;-69
2023/12/18 06:16:52;;;;;;;3.45;2.13;;;19.50;78.00;;;;;;4957236;28;20018;-70
2023/12/18 06:19:17;;;;;;;6.03;2.50;;;19.50;77.90;;;;;;4961277;28;20092;-71
2023/12/18 06:21:43;;;;;;;4.40;2.60;;;19.40;78.00;;;;;;4971436;28;20031;-66
2023/12/18 06:24:09;;;;;;;8.88;2.85;;;19.40;78.10;;;;;;4969379;28;20027;-67
2023/12/18 06:26:34;;;;;;;6.18;2.97;;;19.40;77.90;;;;;;4967436;28;20050;-67
2023/12/18 06:29:00;;;;;;;5.95;2.70;;;19.50;77.90;;;;;;4958423;28;20020;-68
2023/12/18 06:31:25;;;;;;;4.85;2.47;;;19.50;77.90;;;;;;4957905;28;20024;-67
2023/12/18 06:33:51;;;;;;;9.55;2.92;;;19.50;77.80;;;;;;4957079;28;20023;-70
2023/12/18 06:36:19;;;;;;;7.30;2.45;;;19.50;78.10;;;;;;4953956;28;20034;-68
2023/12/18 06:38:45;;;;;;;7.88;3.08;;;19.50;77.70;;;;;;4937051;28;20384;-68
2023/12/18 06:41:11;;;;;;;5.60;2.83;;;19.50;78.00;;;;;;4955375;28;20070;-68
2023/12/18 06:43:37;;;;;;;8.48;2.50;;;19.50;78.00;;;;;;4936994;28;20028;-71
2023/12/18 06:46:03;;;;;;;6.25;2.38;;;19.50;78.00;;;;;;4936537;29;20033;-67
2023/12/18 06:48:29;;;;;;;7.22;2.75;;;19.50;77.90;;;;;;4953756;28;20073;-69
2023/12/18 06:50:54;;;;;;;6.55;3.15;;;19.40;77.90;;;;;;4955592;28;20015;-69
2023/12/18 06:53:20;;;;;;;10.13;2.70;;;19.40;77.90;;;;;;4928978;29;20098;-68
2023/12/18 06:55:46;;;;;;;6.40;2.80;;;19.40;77.90;;;;;;4953500;28;20039;-68
2023/12/18 06:58:11;;;;;;;14.25;2.33;;;19.40;78.00;;;;;;4958100;28;20034;-67
2023/12/18 07:00:37;;;;;;;10.43;2.45;;;19.40;78.00;;;;;;4945319;28;20019;-67
2023/12/18 07:03:03;;;;;;;11.30;3.70;;;19.40;77.90;;;;;;4955099;28;20039;-67
2023/12/18 07:05:29;;;;;;;6.55;2.85;;;19.50;77.70;;;;;;4953394;28;20039;-68
2023/12/18 07:07:55;;;;;;;6.22;3.10;;;19.40;77.60;;;;;;4953467;28;20115;-67
2023/12/18 07:10:22;;;;;;;8.02;3.35;;;19.40;77.40;;;;;;4953560;28;20027;-67
2023/12/18 07:12:47;;;;;;;11.85;3.45;;;19.50;77.10;;;;;;4954199;28;20019;-67
2023/12/18 07:15:13;;;;;;;9.88;3.38;;;19.40;76.70;;;;;;4952245;28;20158;-66
2023/12/18 07:17:39;;;;;;;8.93;3.40;;;19.40;76.60;;;;;;4951894;28;20050;-66
2023/12/18 07:20:06;;;;;;;7.82;3.13;;;19.40;76.60;;;;;;4952072;28;20506;-66
2023/12/18 07:22:33;;;;;;;6.25;2.97;;;19.40;76.80;;;;;;4952841;28;20398;-66
2023/12/18 07:24:59;;;;;;;10.85;2.85;;;19.40;76.80;;;;;;4954708;28;20023;-66
2023/12/18 07:27:24;;;;;;;6.68;3.38;;;19.40;76.80;;;;;;4953059;28;20026;-67
2023/12/18 07:29:50;;;;;;;8.80;2.90;;;19.40;76.70;;;;;;4952842;28;20133;-66
2023/12/18 07:32:16;;;;;;;4.75;2.78;;;19.40;76.70;;;;;;4953396;28;20406;-68
2023/12/18 07:34:42;;;;;;;12.48;3.17;;;19.40;76.70;;;;;;4953557;28;20035;-68
2023/12/18 07:37:08;;;;;;;10.57;3.63;;;19.40;76.70;;;;;;4951528;28;20073;-66
2023/12/18 07:39:33;;;;;;;16.70;3.97;;;19.40;76.70;;;;;;4953126;28;20457;-66
2023/12/18 07:41:59;;;;;;;11.38;4.05;;;19.40;76.80;;;;;;4953065;28;20038;-68
2023/12/18 07:44:25;;;;;;;14.60;5.85;;;19.40;75.50;;;;;;4935758;28;20023;-68
2023/12/18 07:46:52;;;;;;;15.77;4.30;;;17.50;62.00;;;;;;4936682;28;20383;-69
2023/12/18 07:49:18;;;;;;;22.02;6.07;;;17.50;69.10;;;;;;4953150;28;20114;-67
2023/12/18 07:51:43;;;;;;;19.73;5.65;;;17.90;75.30;;;;;;4952891;28;20404;-68
2023/12/18 07:54:13;;;;;;;18.90;4.65;;;18.10;76.00;;;;;;4952660;28;20074;-68
2023/12/18 07:56:39;;;;;;;23.20;5.22;;;18.20;76.80;;;;;;4952589;28;20023;-65
2023/12/18 07:59:04;;;;;;;28.05;7.57;;;18.50;76.60;;;;;;4954146;28;20058;-63
2023/12/18 08:01:30;;;;;;;18.52;7.10;;;18.00;58.30;;;;;;4952777;28;20038;-63
2023/12/18 08:03:55;;;;;;;16.75;6.20;;;16.60;51.30;;;;;;4949175;28;20035;-60
2023/12/18 08:06:21;;;;;;;14.98;7.03;;;15.80;51.50;;;;;;4973573;28;20054;-63
2023/12/18 08:08:47;;;;;;;12.68;6.70;;;14.80;49.70;;;;;;4950964;28;20027;-62
2023/12/18 08:11:12;;;;;;;19.30;8.52;;;14.00;50.30;;;;;;4949497;28;20020;-62
2023/12/18 08:13:38;;;;;;;15.27;5.20;;;13.20;51.70;;;;;;4950216;28;20047;-65
2023/12/18 08:16:06;;;;;;;14.05;6.30;;;13.20;60.00;;;;;;4951227;28;20453;-65
2023/12/18 08:18:31;;;;;;;12.38;5.45;;;13.90;65.10;;;;;;4951556;29;20733;-65
2023/12/18 08:20:57;;;;;;;12.57;5.38;;;14.50;68.30;;;;;;4951102;28;20035;-66
2023/12/18 08:23:23;;;;;;;14.80;5.78;;;15.00;72.10;;;;;;4951144;28;20081;-66
2023/12/18 08:25:48;;;;;;;11.13;5.80;;;15.50;73.40;;;;;;4950812;28;20118;-66
2023/12/18 08:28:14;;;;;;;15.75;5.78;;;15.80;73.60;;;;;;4950986;29;20118;-66
2023/12/18 08:30:39;;;;;;;18.25;6.28;;;16.10;73.70;;;;;;4951300;28;20027;-67
2023/12/18 08:33:05;;;;;;;15.15;5.50;;;16.40;73.80;;;;;;4951160;29;20050;-66
2023/12/18 08:35:30;;;;;;;17.15;5.65;;;16.70;73.50;;;;;;4949761;28;20583;-67
2023/12/18 08:37:56;;;;;;;15.20;6.25;;;16.90;73.30;;;;;;4950862;28;20034;-67
2023/12/18 08:40:22;;;;;;;18.38;5.60;;;17.00;72.80;;;;;;4950678;29;20411;-66
2023/12/18 08:42:48;;;;;;;12.50;6.05;;;17.20;72.20;;;;;;4950700;28;20406;-67
2023/12/18 08:45:14;;;;;;;16.02;4.68;;;17.40;72.00;;;;;;4950490;28;20028;-67
2023/12/18 08:47:39;;;;;;;31.05;5.45;;;17.50;72.00;;;;;;4949620;28;20042;-67
2023/12/18 08:50:05;;;;;;;13.35;5.72;;;17.70;71.80;;;;;;4950956;29;20031;-67
2023/12/18 08:52:31;;;;;;;14.63;4.80;;;17.80;71.60;;;;;;4932595;29;20402;-67
2023/12/18 08:54:56;;;;;;;16.40;4.65;;;18.00;71.40;;;;;;4950810;28;20074;-66
2023/12/18 08:57:22;;;;;;;13.45;4.70;;;18.00;71.30;;;;;;4949569;28;20028;-67
2023/12/18 08:59:50;;;;;;;10.35;4.57;;;18.20;70.80;;;;;;4949552;28;20097;-67
2023/12/18 09:02:16;;;;;;;16.90;4.90;;;18.30;70.70;;;;;;4950467;28;20092;-67
2023/12/18 09:04:41;;;;;;;9.82;4.47;;;18.30;70.60;;;;;;4933277;29;20122;-67
2023/12/18 09:07:07;;;;;;;12.93;4.38;;;18.50;70.50;;;;;;4949915;28;20024;-67
2023/12/18 09:09:33;;;;;;;9.80;4.05;;;18.50;70.40;;;;;;4949751;28;20031;-67
2023/12/18 09:11:58;;;;;;;10.18;4.13;;;18.60;70.30;;;;;;4949634;28;20028;-67
2023/12/18 09:14:24;;;;;;;9.60;4.32;;;18.70;70.20;;;;;;4949551;28;20075;-67
2023/12/18 09:16:49;;;;;;;10.07;3.78;;;18.80;70.10;;;;;;4932248;28;20023;-67
2023/12/18 09:19:15;;;;;;;11.52;4.38;;;18.80;70.10;;;;;;4949708;28;20487;-67
2023/12/18 09:21:41;;;;;;;9.88;4.47;;;18.90;70.00;;;;;;4948938;28;20121;-67
2023/12/18 09:24:07;;;;;;;9.82;3.88;;;18.90;69.90;;;;;;4948686;28;20027;-67
2023/12/18 09:26:33;;;;;;;11.50;3.63;;;19.00;69.90;;;;;;4948616;29;20103;-68
2023/12/18 09:28:59;;;;;;;10.27;4.50;;;19.00;69.90;;;;;;4948687;29;20106;-67
2023/12/18 09:31:25;;;;;;;7.18;3.30;;;19.00;69.80;;;;;;4931375;28;20023;-68
2023/12/18 09:33:50;;;;;;;13.43;3.83;;;19.10;69.80;;;;;;4948626;28;20065;-67
2023/12/18 09:36:17;;;;;;;8.45;3.65;;;19.10;69.80;;;;;;4948452;29;20054;-67
2023/12/18 09:38:43;;;;;;;10.27;3.83;;;19.20;69.80;;;;;;4948828;28;20110;-68
2023/12/18 09:41:09;;;;;;;5.43;3.22;;;19.20;69.80;;;;;;4931333;29;20470;-67
2023/12/18 09:43:35;;;;;;;9.98;3.88;;;19.20;69.80;;;;;;4948625;28;20027;-67
2023/12/18 09:46:00;;;;;;;5.97;3.22;;;19.20;69.80;;;;;;4948864;29;20039;-68
2023/12/18 09:48:26;;;;;;;6.07;3.33;;;19.30;69.80;;;;;;4951989;28;20023;-67
2023/12/18 09:50:52;;;;;;;6.05;3.10;;;19.30;69.80;;;;;;4951942;29;20457;-67
2023/12/18 09:53:21;;;;;;;6.75;3.05;;;19.30;69.70;;;;;;4951821;28;20594;-67
2023/12/18 09:55:54;;;;;;;8.70;3.25;;;19.30;69.70;;;;;;4951679;28;20027;-67
2023/12/18 09:58:23;;;;;;;8.23;3.35;;;19.40;69.70;;;;;;4951793;29;20054;-67
2023/12/18 10:00:50;;;;;;;7.32;3.55;;;19.40;69.70;;;;;;4951742;28;20521;-67
2023/12/18 10:03:16;;;;;;;6.95;3.22;;;19.40;69.60;;;;;;4951776;29;20050;-67
2023/12/18 10:05:42;;;;;;;8.90;3.58;;;19.40;69.60;;;;;;4951497;28;20499;-67
2023/12/18 10:08:09;;;;;;;10.95;3.60;;;19.40;69.50;;;;;;4951641;29;20043;-68
2023/12/18 10:10:35;;;;;;;7.68;2.90;;;19.50;69.50;;;;;;4951835;29;20042;-67
2023/12/18 10:13:03;;;;;;;8.13;2.90;;;19.50;69.50;;;;;;4951995;28;20435;-67
2023/12/18 10:15:29;;;;;;;6.05;3.17;;;19.50;69.50;;;;;;4951695;28;20073;-67
2023/12/18 10:17:55;;;;;;;5.40;3.00;;;19.50;69.50;;;;;;4952014;28;20030;-67
2023/12/18 10:20:22;;;;;;;8.57;3.13;;;19.50;69.50;;;;;;4951965;29;20019;-67
2023/12/18 10:22:48;;;;;;;5.18;2.70;;;19.50;69.50;;;;;;4951901;29;20030;-65
2023/12/18 10:25:14;;;;;;;6.20;3.22;;;19.60;69.50;;;;;;4956856;28;20027;-67
2023/12/18 10:27:42;;;;;;;6.32;3.35;;;19.50;69.50;;;;;;4957013;29;20157;-68
2023/12/18 10:30:08;;;;;;;4.15;2.75;;;19.50;69.50;;;;;;4955757;28;20028;-68
2023/12/18 10:32:39;;;;;;;6.15;3.17;;;19.60;69.50;;;;;;4951641;28;20085;-67
2023/12/18 10:35:06;;;;;;;4.75;2.97;;;19.50;69.50;;;;;;4951413;28;20046;-67
2023/12/18 10:37:33;;;;;;;6.60;2.55;;;19.50;69.50;;;;;;4951164;28;20035;-68
2023/12/18 10:40:06;;;;;;;4.95;2.95;;;19.50;69.50;;;;;;4951385;29;20036;-68
2023/12/18 10:42:36;;;;;;;4.45;2.83;;;19.60;69.50;;;;;;4951432;29;20023;-67
2023/12/18 10:45:06;;;;;;;5.95;3.38;;;19.50;69.50;;;;;;4951220;28;20031;-67
2023/12/18 10:47:32;;;;;;;6.88;3.28;;;19.50;69.40;;;;;;4951191;28;20455;-67
2023/12/18 10:50:04;;;;;;;5.18;2.97;;;19.60;69.40;;;;;;4950949;29;20046;-67
2023/12/18 10:52:30;;;;;;;4.78;2.75;;;19.60;69.40;;;;;;4950733;29;20145;-67
2023/12/18 10:54:59;;;;;;;4.07;2.90;;;19.60;69.40;;;;;;4949943;28;20366;-67
2023/12/18 10:57:26;;;;;;;4.93;2.65;;;19.50;69.30;;;;;;4950471;29;20390;-67
2023/12/18 10:59:53;;;;;;;8.38;2.97;;;19.60;69.30;;;;;;4950845;28;20036;-68
2023/12/18 11:02:19;;;;;;;4.97;2.83;;;19.60;69.40;;;;;;4950937;29;20024;-65
2023/12/18 11:04:48;;;;;;;6.60;2.63;;;19.60;69.40;;;;;;4950759;28;20031;-64
2023/12/18 11:07:17;;;;;;;8.98;2.60;;;19.50;69.50;;;;;;4950819;28;20050;-65
2023/12/18 11:09:44;;;;;;;8.57;2.75;;;19.60;69.50;;;;;;4933633;29;20447;-65
2023/12/18 11:12:11;;;;;;;9.25;3.42;;;19.50;69.50;;;;;;4950831;29;20027;-65
2023/12/18 11:14:51;;;;;;;6.22;2.60;;;19.50;69.60;;;;;;4933272;28;20031;-67
2023/12/18 11:17:26;;;;;;;5.72;2.60;;;19.50;69.70;;;;;;4950965;29;20020;-66
2023/12/18 11:20:13;;;;;;;12.88;3.95;;;19.50;69.70;;;;;;4950875;29;20035;-66
2023/12/18 11:22:44;;;;;;;17.13;3.40;;;19.50;69.70;;;;;;4950476;29;20027;-66
2023/12/18 11:25:10;;;;;;;6.53;2.85;;;19.50;69.80;;;;;;4950223;28;20077;-66
2023/12/18 11:27:36;;;;;;;7.32;3.25;;;19.50;69.60;;;;;;4950556;29;20075;-66
2023/12/18 11:30:02;;;;;;;11.60;3.30;;;19.50;69.70;;;;;;4950646;29;20212;-67
2023/12/18 11:32:44;;;;;;;10.95;3.28;;;19.50;69.70;;;;;;4950592;29;20024;-67
2023/12/18 11:35:11;;;;;;;16.20;3.85;;;19.50;69.80;;;;;;4950182;28;20394;-66
2023/12/18 11:37:52;;;;;;;15.95;3.58;;;19.50;69.90;;;;;;4950612;29;20031;-67
2023/12/18 11:40:45;;;;;;;8.63;2.60;;;19.50;69.90;;;;;;4950742;28;20019;-66
2023/12/18 11:43:13;;;;;;;14.00;3.30;;;19.40;70.10;;;;;;4950008;28;20035;-69
2023/12/18 11:45:43;;;;;;;9.18;2.55;;;19.50;70.10;;;;;;4950210;28;20024;-69
2023/12/18 11:48:13;;;;;;;7.63;3.00;;;19.40;70.20;;;;;;4950152;29;20118;-69
2023/12/18 11:50:40;;;;;;;9.17;3.13;;;19.40;70.30;;;;;;4950347;29;20038;-69
2023/12/18 11:53:07;;;;;;;7.45;2.63;;;19.40;70.30;;;;;;4950257;29;20049;-69
2023/12/18 11:55:39;;;;;;;9.05;2.90;;;19.40;70.40;;;;;;4932659;29;20035;-68
2023/12/18 11:58:05;;;;;;;22.95;3.63;;;19.40;70.40;;;;;;4950262;28;20027;-68
2023/12/18 12:00:31;;;;;;;10.25;2.83;;;19.40;70.50;;;;;;4950383;28;20157;-68
2023/12/18 12:03:00;;;;;;;9.80;2.78;;;19.40;70.50;;;;;;4949903;29;20066;-69
2023/12/18 12:05:27;;;;;;;8.63;2.35;;;19.40;70.50;;;;;;4950045;28;20028;-68
2023/12/18 12:07:53;;;;;;;4.80;2.35;;;19.40;70.50;;;;;;4950269;28;20027;-67
2023/12/18 12:10:20;;;;;;;6.03;2.05;;;19.40;70.60;;;;;;4949935;28;20475;-68
2023/12/18 12:12:55;;;;;;;8.60;2.50;;;19.40;70.60;;;;;;4954313;28;20115;-67
2023/12/18 12:15:23;;;;;;;8.40;2.38;;;19.50;70.60;;;;;;4949459;29;20165;-67
2023/12/18 12:17:49;;;;;;;7.50;1.77;;;19.50;70.70;;;;;;4950157;29;20024;-67
2023/12/18 12:20:15;;;;;;;5.90;1.88;;;19.50;70.80;;;;;;4949967;29;20034;-67
2023/12/18 12:22:40;;;;;;;5.55;2.28;;;19.50;70.90;;;;;;4949813;28;20020;-67
2023/12/18 12:25:06;;;;;;;4.57;2.35;;;19.50;71.00;;;;;;4950281;28;20110;-67
2023/12/18 12:27:33;;;;;;;5.03;1.80;;;19.60;71.10;;;;;;4983641;28;20036;-67
2023/12/18 12:29:59;;;;;;;3.80;2.15;;;19.60;71.10;;;;;;5050055;28;20060;-67
2023/12/18 12:32:25;;;;;;;6.43;2.10;;;19.70;71.10;;;;;;5050863;28;20052;-67
2023/12/18 12:34:50;;;;;;;3.38;1.48;;;19.70;71.10;;;;;;5050125;28;20104;-68
2023/12/18 12:37:16;;;;;;;6.32;1.73;;;19.70;71.00;;;;;;5050176;28;20396;-67